Time;durP1;ratioP1;P1;durP2;ratioP2;P2;SDS_P1;SDS_P2;PMS_P1;PMS_P2;Temp;Humidity;BMP_temperature;BMP_pressure;BME280_temperature;BME280_humidity;BME280_pressure;Samples;Min_cycle;Max_cycle;Signal;HPM_P1;HPM_P2
2023/05/08 00:00:26;;;;;;;7.45;3.37;;;;;;;12.47;59.88;100161.19;4470230;32;20096;-89
2023/05/08 00:02:51;;;;;;;5.53;3.53;;;;;;;12.37;59.88;100157.19;4470148;32;20124;-88
2023/05/08 00:05:17;;;;;;;5.80;3.10;;;;;;;12.41;59.87;100163.16;4482971;32;20160;-89
2023/05/08 00:07:42;;;;;;;7.40;3.60;;;;;;;12.24;59.86;100156.72;4471011;32;20449;-87
2023/05/08 00:10:08;;;;;;;5.47;3.62;;;;;;;12.35;59.86;100159.00;4474387;32;20179;-87
2023/05/08 00:12:34;;;;;;;6.68;3.22;;;;;;;12.19;59.86;100157.78;4455805;32;20088;-87
2023/05/08 00:15:00;;;;;;;5.28;3.25;;;;;;;12.10;59.85;100158.94;4482892;32;20126;-87
2023/05/08 00:17:25;;;;;;;8.15;3.72;;;;;;;12.09;59.86;100159.84;4482369;31;20112;-87
2023/05/08 00:19:51;;;;;;;7.57;3.30;;;;;;;11.93;59.85;100167.28;4469613;32;20080;-88
2023/05/08 00:22:17;;;;;;;5.55;3.62;;;;;;;11.86;59.85;100160.56;4470757;32;20085;-88
2023/05/08 00:24:43;;;;;;;7.20;3.33;;;;;;;12.01;59.85;100160.97;4461539;32;20096;-88
2023/05/08 00:27:08;;;;;;;6.00;3.33;;;;;;;12.28;59.86;100160.09;4456942;32;20140;-88
2023/05/08 00:29:33;;;;;;;5.70;3.45;;;;;;;12.33;59.87;100160.81;4469643;32;25999;-86
2023/05/08 00:31:59;;;;;;;6.32;3.53;;;;;;;12.19;59.86;100160.41;4482736;32;20080;-87
2023/05/08 00:34:25;;;;;;;5.43;3.22;;;;;;;11.86;59.85;100160.56;4455575;32;20392;-88
2023/05/08 00:36:50;;;;;;;4.43;3.37;;;;;;;11.75;59.84;100167.81;4480919;32;20445;-87
2023/05/08 00:39:16;;;;;;;6.60;3.62;;;;;;;11.65;59.83;100174.22;4458697;32;20397;-87
2023/05/08 00:41:41;;;;;;;7.32;3.78;;;;;;;11.67;59.83;100175.00;4457293;32;20088;-87
2023/05/08 00:44:07;;;;;;;5.30;3.58;;;;;;;11.60;59.84;100174.34;4471756;32;20418;-86
2023/05/08 00:46:32;;;;;;;6.15;3.67;;;;;;;11.71;59.84;100174.03;4458147;32;20128;-86
2023/05/08 00:48:58;;;;;;;5.80;3.53;;;;;;;11.67;59.83;100177.62;4458552;32;20110;-87
2023/05/08 00:51:23;;;;;;;6.55;3.95;;;;;;;11.65;59.83;100179.44;4471289;32;20421;-87
2023/05/08 00:53:48;;;;;;;10.60;4.65;;;;;;;11.65;59.83;100179.44;4468575;32;20164;-87
2023/05/08 00:56:14;;;;;;;7.07;4.18;;;;;;;11.68;59.84;100180.19;4480204;32;20473;-88
2023/05/08 00:58:40;;;;;;;6.07;3.72;;;;;;;11.41;59.82;100173.19;4471283;32;20088;-87
2023/05/08 01:01:05;;;;;;;7.62;3.70;;;;;;;11.40;59.82;100179.28;4470739;32;20464;-87
2023/05/08 01:03:32;;;;;;;8.43;3.53;;;;;;;11.34;59.82;100185.50;4471099;32;20147;-85
2023/05/08 01:05:58;;;;;;;7.55;3.70;;;;;;;11.43;59.81;100184.41;4484556;32;20573;-87
2023/05/08 01:08:23;;;;;;;6.10;3.97;;;;;;;11.26;59.81;100189.22;4471472;32;20100;-87
2023/05/08 01:11:10;;;;;;;6.53;3.33;;;;;;;11.28;59.81;100185.69;4458351;32;20118;-88
2023/05/08 01:13:51;;;;;;;6.72;3.90;;;;;;;11.24;59.81;100193.63;4485517;32;20825;-88
2023/05/08 01:16:22;;;;;;;7.50;4.45;;;;;;;11.28;59.81;100188.28;4485186;32;20103;-87
2023/05/08 01:19:08;;;;;;;6.20;3.67;;;;;;;11.22;59.81;100188.47;4484298;31;20152;-87
2023/05/08 01:21:41;;;;;;;5.40;3.60;;;;;;;11.41;59.82;100204.44;4484455;32;20597;-87
2023/05/08 01:24:15;;;;;;;7.00;3.65;;;;;;;11.33;59.81;100199.44;4468392;32;20258;-88
2023/05/08 01:26:56;;;;;;;6.00;3.97;;;;;;;11.21;59.81;100210.22;4478258;32;20105;-88
2023/05/08 01:29:26;;;;;;;6.28;3.80;;;;;;;11.35;59.82;100209.81;4474589;32;20105;-88
2023/05/08 01:32:10;;;;;;;6.20;3.58;;;;;;;11.02;59.80;100220.25;4471354;32;20118;-88
2023/05/08 01:34:40;;;;;;;6.30;3.90;;;;;;;11.13;59.80;100220.00;4485607;32;20124;-88
2023/05/08 01:37:11;;;;;;;6.70;3.77;;;;;;;10.86;59.79;100215.47;4471476;32;20089;-87
2023/05/08 01:39:41;;;;;;;4.90;3.15;;;;;;;10.85;59.79;100218.97;4484459;32;20148;-88
2023/05/08 01:42:27;;;;;;;6.22;3.80;;;;;;;10.80;59.78;100216.50;4485742;32;20089;-88
2023/05/08 01:44:58;;;;;;;7.12;3.62;;;;;;;11.04;59.80;100215.88;4484899;32;20160;-88
2023/05/08 01:47:25;;;;;;;8.30;3.42;;;;;;;10.86;59.79;100215.47;4468683;32;20096;-89
2023/05/08 01:50:13;;;;;;;6.82;4.20;;;;;;;10.80;59.79;100218.25;4466532;32;20356;-88
2023/05/08 01:52:47;;;;;;;14.93;4.35;;;;;;;10.80;59.79;100220.84;4478184;32;20126;-88
2023/05/08 01:55:22;;;;;;;5.80;3.87;;;;;;;10.72;59.78;100221.91;4471469;32;20093;-87
2023/05/08 01:57:48;;;;;;;8.90;4.40;;;;;;;10.88;59.79;100224.97;4469566;32;20092;-87
2023/05/08 02:00:14;;;;;;;8.55;3.60;;;;;;;10.81;59.79;100235.59;4458360;32;20381;-87
2023/05/08 02:02:40;;;;;;;6.47;3.65;;;;;;;10.75;59.78;100228.78;4485584;31;20081;-87
2023/05/08 02:05:06;;;;;;;6.43;3.83;;;;;;;10.85;59.79;100221.59;4471011;32;20453;-87
2023/05/08 02:07:32;;;;;;;7.37;3.95;;;;;;;10.76;59.78;100230.50;4472850;32;20101;-89
2023/05/08 02:09:58;;;;;;;6.37;3.87;;;;;;;10.81;59.79;100230.37;4476395;32;20126;-88
2023/05/08 02:12:24;;;;;;;6.80;4.65;;;;;;;10.76;59.79;100241.75;4456203;32;20108;-87
2023/05/08 02:14:50;;;;;;;7.05;4.32;;;;;;;10.73;59.78;100239.25;4467678;32;20160;-89
2023/05/08 02:17:15;;;;;;;8.13;4.07;;;;;;;10.52;59.76;100242.38;4470773;31;20091;-86
2023/05/08 02:19:41;;;;;;;9.82;4.57;;;;;;;10.64;59.78;100238.59;4462746;32;20203;-86
2023/05/08 02:22:06;;;;;;;6.55;4.40;;;;;;;10.47;59.75;100243.38;4458902;32;20128;-86
2023/05/08 02:24:33;;;;;;;7.12;4.43;;;;;;;10.75;59.78;100245.25;4476032;32;20152;-86
2023/05/08 02:26:58;;;;;;;8.45;4.03;;;;;;;10.39;59.76;100243.53;4483579;32;20096;-85
2023/05/08 02:29:24;;;;;;;6.70;4.45;;;;;;;10.56;59.77;100245.75;4470188;32;26742;-85
2023/05/08 02:31:49;;;;;;;6.65;4.32;;;;;;;10.32;59.77;100240.22;4463848;32;20088;-85
2023/05/08 02:34:15;;;;;;;7.57;4.22;;;;;;;10.29;59.75;100240.31;4483836;32;20148;-88
2023/05/08 02:36:40;;;;;;;6.15;3.92;;;;;;;10.14;59.74;100235.41;4483621;32;20091;-85
2023/05/08 02:39:05;;;;;;;6.85;3.97;;;;;;;10.11;59.75;100245.88;4470784;32;20131;-85
2023/05/08 02:41:31;;;;;;;8.07;4.90;;;;;;;9.95;59.74;100236.72;4472997;32;20148;-85
2023/05/08 02:43:57;;;;;;;6.53;4.20;;;;;;;10.00;59.74;100242.66;4467471;32;20170;-83
2023/05/08 02:46:44;;;;;;;6.47;4.50;;;;;;;10.02;59.73;100235.69;4482029;32;20100;-85
2023/05/08 02:49:23;;;;;;;10.23;5.03;;;;;;;9.99;59.74;100249.63;4485211;31;20512;-87
2023/05/08 02:52:20;;;;;;;7.85;4.53;;;;;;;9.98;59.74;100245.31;4471431;32;20156;-88
2023/05/08 02:54:55;;;;;;;6.62;4.45;;;;;;;9.94;59.73;100248.00;4478214;32;20127;-85
2023/05/08 02:57:26;;;;;;;9.27;5.15;;;;;;;10.00;59.74;100255.69;4483444;32;20578;-85
2023/05/08 03:00:22;;;;;;;6.97;4.60;;;;;;;9.82;59.73;100259.50;4483245;32;20201;-87
2023/05/08 03:03:00;;;;;;;8.57;4.28;;;;;;;9.76;59.72;100250.09;4474190;32;20511;-86
2023/05/08 03:05:29;;;;;;;9.30;4.40;;;;;;;9.71;59.72;100248.50;4453281;32;20486;-86
2023/05/08 03:07:56;;;;;;;7.65;5.15;;;;;;;9.56;59.71;100252.25;4470105;32;20130;-84
2023/05/08 03:10:24;;;;;;;10.82;6.15;;;;;;;9.77;59.72;100251.81;4457635;32;20503;-84
2023/05/08 03:12:51;;;;;;;11.65;5.82;;;;;;;9.52;59.71;100246.25;4483792;32;20096;-86
2023/05/08 03:15:26;;;;;;;9.70;5.57;;;;;;;9.64;59.72;100255.53;4471778;32;20146;-86
2023/05/08 03:17:52;;;;;;;11.55;6.40;;;;;;;9.65;59.72;100256.38;4462627;32;20100;-87
2023/05/08 03:20:18;;;;;;;10.98;6.03;;;;;;;9.72;59.73;100260.59;4458011;32;20139;-86
2023/05/08 03:22:43;;;;;;;11.68;6.03;;;;;;;9.85;59.73;100254.25;4461778;32;20409;-89
2023/05/08 03:25:09;;;;;;;11.02;6.18;;;;;;;9.89;59.73;100255.88;4456277;32;20417;-85
2023/05/08 03:27:35;;;;;;;11.90;6.45;;;;;;;10.07;59.74;100254.66;4467643;32;20118;-84
2023/05/08 03:30:00;;;;;;;14.50;5.93;;;;;;;9.88;59.74;100266.31;4481237;32;20080;-83
2023/05/08 03:32:26;;;;;;;8.95;5.72;;;;;;;9.69;59.72;100263.22;4483356;32;20457;-86
2023/05/08 03:34:53;;;;;;;9.80;5.60;;;;;;;9.82;59.73;100257.78;4470019;32;20101;-86
2023/05/08 03:37:18;;;;;;;11.32;5.20;;;;;;;10.14;59.74;100258.81;4470453;32;20096;-84
2023/05/08 03:39:43;;;;;;;6.97;5.00;;;;;;;9.78;59.72;100261.31;4469743;32;20160;-86
2023/05/08 03:42:09;;;;;;;7.37;4.80;;;;;;;9.83;59.72;100250.81;4470270;32;20130;-88
2023/05/08 03:44:34;;;;;;;8.70;4.87;;;;;;;9.83;59.73;100259.47;4470103;32;20512;-86
2023/05/08 03:47:00;;;;;;;8.77;4.95;;;;;;;9.89;59.73;100262.84;4483323;32;20140;-86
2023/05/08 03:49:25;;;;;;;7.90;5.10;;;;;;;9.78;59.72;100263.06;4483119;32;20117;-84
2023/05/08 03:51:53;;;;;;;8.50;5.68;;;;;;;9.93;59.73;100261.88;4469888;32;20112;-84
2023/05/08 03:54:18;;;;;;;9.40;5.45;;;;;;;10.02;59.74;100265.16;4470088;32;20134;-86
2023/05/08 03:56:44;;;;;;;9.85;5.47;;;;;;;10.03;59.74;100264.25;4484586;32;20432;-86
2023/05/08 03:59:24;;;;;;;8.30;5.12;;;;;;;9.94;59.73;100274.03;4457123;32;20114;-87
2023/05/08 04:02:09;;;;;;;10.80;5.65;;;;;;;10.03;59.74;100264.25;4470288;32;20110;-87
2023/05/08 04:04:41;;;;;;;11.15;6.07;;;;;;;10.27;59.75;100262.03;4482697;32;20119;-87
2023/05/08 04:07:09;;;;;;;10.50;5.50;;;;;;;10.16;59.75;100270.87;4483984;31;20161;-91
2023/05/08 04:09:55;;;;;;;13.68;5.93;;;;;;;10.21;59.75;100270.84;4473688;32;20081;-86
2023/05/08 04:12:22;;;;;;;9.63;6.30;;;;;;;10.27;59.75;100269.84;4482690;32;20100;-87
2023/05/08 04:15:06;;;;;;;15.20;6.82;;;;;;;10.49;59.76;100275.41;4470419;32;20112;-89
2023/05/08 04:17:49;;;;;;;11.57;6.60;;;;;;;10.55;59.76;100277.87;4458704;32;20097;-92
2023/05/08 04:20:17;;;;;;;12.05;6.60;;;;;;;10.62;59.78;100274.22;4446227;32;20130;-88
2023/05/08 04:22:42;;;;;;;13.85;7.18;;;;;;;10.71;59.78;100280.09;4473966;32;20079;-90
2023/05/08 04:25:08;;;;;;;15.23;7.20;;;;;;;10.75;59.78;100284.31;4465478;32;20100;-91
2023/05/08 04:27:34;;;;;;;10.57;6.62;;;;;;;10.76;59.77;100285.19;4461847;32;20563;-89
2023/05/08 04:30:02;;;;;;;13.05;7.30;;;;;;;10.93;59.79;100287.38;4470537;32;20093;-91
2023/05/08 04:32:27;;;;;;;13.43;6.95;;;;;;;11.04;59.79;100291.41;4476030;32;20150;-86
2023/05/08 04:34:54;;;;;;;12.88;7.62;;;;;;;11.11;59.80;100293.84;4479435;32;20431;-86
2023/05/08 04:37:26;;;;;;;13.20;7.50;;;;;;;11.22;59.81;100292.69;4470162;32;20104;-86
2023/05/08 04:39:52;;;;;;;13.25;7.37;;;;;;;11.18;59.80;100293.69;4483040;32;20594;-87
2023/05/08 04:42:17;;;;;;;11.10;7.22;;;;;;;11.32;59.81;100298.50;4483017;32;20080;-86
2023/05/08 04:44:43;;;;;;;12.40;8.20;;;;;;;11.36;59.81;100306.22;4472197;32;20101;-84
2023/05/08 04:47:08;;;;;;;12.60;7.70;;;;;;;11.62;59.83;100296.84;4456694;32;20180;-87
2023/05/08 04:49:34;;;;;;;16.65;8.85;;;;;;;11.60;59.83;100304.72;4468921;32;20108;-87
2023/05/08 04:52:00;;;;;;;13.68;7.72;;;;;;;11.65;59.83;100313.28;4482735;32;20157;-91
2023/05/08 04:54:38;;;;;;;14.35;7.60;;;;;;;11.66;59.83;100321.94;4469433;32;20513;-91
2023/05/08 04:57:03;;;;;;;16.00;8.35;;;;;;;11.79;59.84;100310.28;4450791;32;20115;-87
2023/05/08 04:59:29;;;;;;;13.20;8.18;;;;;;;11.69;59.83;100319.25;4483369;31;20122;-87
2023/05/08 05:01:55;;;;;;;15.05;7.85;;;;;;;11.80;59.84;100316.38;4468866;32;20120;-89
2023/05/08 05:04:21;;;;;;;15.45;8.43;;;;;;;11.96;59.84;100318.50;4476416;32;20393;-86
2023/05/08 05:06:49;;;;;;;14.57;8.32;;;;;;;12.05;59.85;100324.34;4481986;32;20100;-89
2023/05/08 05:09:14;;;;;;;14.87;8.82;;;;;;;12.19;59.85;100323.06;4467910;32;20150;-91
2023/05/08 05:11:40;;;;;;;14.68;8.27;;;;;;;12.31;59.87;100319.25;4466632;32;20120;-91
2023/05/08 05:14:06;;;;;;;15.57;8.48;;;;;;;12.35;59.86;100317.41;4452590;32;20565;-91
2023/05/08 05:16:32;;;;;;;15.18;9.63;;;;;;;12.32;59.86;100315.72;4469480;32;20108;-91
2023/05/08 05:18:57;;;;;;;15.32;8.85;;;;;;;12.53;59.88;100316.81;4454473;32;20116;-90
2023/05/08 05:21:23;;;;;;;16.45;9.98;;;;;;;12.55;59.87;100315.03;4462658;32;20092;-90
2023/05/08 05:23:48;;;;;;;21.37;10.10;;;;;;;12.49;59.87;100326.50;4457515;32;20163;-90
2023/05/08 05:26:14;;;;;;;16.12;9.35;;;;;;;12.65;59.88;100318.19;4478172;32;20134;-90
2023/05/08 05:28:39;;;;;;;13.30;9.38;;;;;;;12.82;59.90;100319.38;4458559;32;20135;-91
2023/05/08 05:31:04;;;;;;;13.98;8.98;;;;;;;13.00;59.90;100324.91;4468877;32;20380;-90
2023/05/08 05:33:30;;;;;;;16.85;10.07;;;;;;;12.98;59.90;100326.69;4455191;32;22742;-89
2023/05/08 05:35:56;;;;;;;15.35;9.15;;;;;;;12.99;59.90;100328.41;4451954;32;20146;-90
2023/05/08 05:38:21;;;;;;;16.62;9.10;;;;;;;13.12;59.91;100327.97;4447845;32;20104;-90
2023/05/08 05:40:46;;;;;;;16.92;9.23;;;;;;;13.27;59.92;100331.87;4449540;32;20158;-90
2023/05/08 05:43:12;;;;;;;16.35;9.48;;;;;;;13.48;59.92;100322.41;4453767;32;20169;-89
2023/05/08 05:45:38;;;;;;;15.38;8.85;;;;;;;13.56;59.93;100328.25;4451488;32;20131;-90
2023/05/08 05:48:04;;;;;;;15.73;9.00;;;;;;;13.62;59.93;100325.41;4461195;32;20088;-90
2023/05/08 05:50:30;;;;;;;16.00;9.18;;;;;;;13.80;59.95;100329.16;4459069;32;20137;-91
2023/05/08 05:52:55;;;;;;;10.88;7.87;;;;;;;13.74;59.94;100330.22;4461023;32;20456;-91
2023/05/08 05:55:21;;;;;;;15.07;7.68;;;;;;;13.63;59.93;100337.59;4450388;32;20127;-91
2023/05/08 05:57:47;;;;;;;13.32;7.30;;;;;;;13.80;59.94;100331.78;4456140;32;20135;-90
2023/05/08 06:00:12;;;;;;;12.77;6.00;;;;;;;14.08;59.96;100335.09;4451916;32;20161;-91
2023/05/08 06:02:38;;;;;;;4.80;2.37;;;;;;;14.34;59.98;100330.62;4459368;32;20131;-90
2023/05/08 06:05:03;;;;;;;3.83;2.40;;;;;;;14.65;59.99;100330.31;4455912;32;20144;-90
2023/05/08 06:07:29;;;;;;;4.00;1.80;;;;;;;14.71;60.00;100336.19;4466774;32;20181;-92
2023/05/08 06:09:55;;;;;;;3.80;2.35;;;;;;;14.74;60.00;100327.34;4450107;32;20455;-91
2023/05/08 06:12:20;;;;;;;3.10;1.87;;;;;;;14.70;59.98;100326.62;4483347;32;20465;-90
2023/05/08 06:14:46;;;;;;;3.03;2.10;;;;;;;14.64;59.99;100326.00;4450104;32;20167;-90
2023/05/08 06:17:11;;;;;;;2.72;1.77;;;;;;;14.50;59.98;100336.19;4465997;32;20169;-90
2023/05/08 06:19:37;;;;;;;3.47;2.25;;;;;;;14.71;60.00;100327.47;4468603;32;20096;-91
2023/05/08 06:22:02;;;;;;;3.42;1.60;;;;;;;14.74;59.99;100329.97;4471021;32;20127;-91
2023/05/08 06:24:28;;;;;;;2.37;1.65;;;;;;;14.79;60.00;100329.78;4470902;32;20116;-91
2023/05/08 06:26:53;;;;;;;4.53;1.80;;;;;;;14.87;60.01;100336.41;4470807;32;20104;-88
2023/05/08 06:29:19;;;;;;;2.50;1.42;;;;;;;14.72;60.00;100330.03;4471311;32;20143;-90
2023/05/08 06:31:44;;;;;;;2.25;1.42;;;;;;;14.84;59.99;100336.53;4455314;32;20113;-91
2023/05/08 06:34:10;;;;;;;2.28;1.20;;;;;;;14.86;60.00;100331.22;4450082;32;20124;-90
2023/05/08 06:36:35;;;;;;;3.33;1.33;;;;;;;15.01;60.00;100336.72;4455742;32;20165;-91
2023/05/08 06:39:04;;;;;;;1.35;0.98;;;;;;;15.00;60.01;100336.78;4450036;32;20096;-90
2023/05/08 06:41:29;;;;;;;2.75;1.23;;;;;;;15.24;60.02;100340.16;4458229;32;20115;-89
2023/05/08 06:43:54;;;;;;;2.35;1.10;;;;;;;15.46;60.03;100335.72;4455318;32;20172;-89
2023/05/08 06:46:20;;;;;;;3.35;1.27;;;;;;;15.57;60.04;100341.34;4444239;32;32237;-91
2023/05/08 06:48:46;;;;;;;2.53;1.20;;;;;;;15.70;60.05;100341.72;4458247;32;20144;-90
2023/05/08 06:51:11;;;;;;;1.62;0.95;;;;;;;15.67;60.04;100339.22;4455255;32;20166;-90
2023/05/08 06:53:36;;;;;;;1.73;1.00;;;;;;;15.61;60.04;100340.34;4463171;32;20100;-89
2023/05/08 06:56:02;;;;;;;4.50;0.95;;;;;;;15.85;60.05;100348.03;4470503;32;20136;-90
2023/05/08 06:58:28;;;;;;;3.65;1.35;;;;;;;15.89;60.06;100345.25;4458052;32;20115;-90
2023/05/08 07:00:53;;;;;;;1.50;0.90;;;;;;;16.08;60.06;100344.38;4455596;32;20116;-90
2023/05/08 07:03:18;;;;;;;1.75;0.98;;;;;;;16.12;60.07;100345.97;4442062;32;22715;-90
2023/05/08 07:05:44;;;;;;;1.85;0.80;;;;;;;16.30;60.07;100342.50;4444306;32;22698;-90
2023/05/08 07:08:09;;;;;;;2.08;1.05;;;;;;;16.47;60.09;100337.31;4458130;32;20474;-90
2023/05/08 07:10:35;;;;;;;1.08;0.77;;;;;;;16.68;60.09;100347.78;4457715;32;20510;-90
2023/05/08 07:13:00;;;;;;;2.62;1.67;;;;;;;16.83;60.10;100342.66;4457915;32;20417;-90
2023/05/08 07:15:26;;;;;;;1.25;1.00;;;;;;;17.06;60.11;100345.94;4457473;32;20088;-90
2023/05/08 07:17:51;;;;;;;1.92;1.10;;;;;;;17.34;60.14;100343.62;4470815;32;20668;-90
2023/05/08 07:20:16;;;;;;;3.87;0.85;;;;;;;17.48;60.14;100342.91;4457110;32;20179;-90
2023/05/08 07:22:42;;;;;;;0.93;0.80;;;;;;;17.74;60.16;100342.47;4471010;32;20168;-91
2023/05/08 07:25:08;;;;;;;1.92;0.80;;;;;;;17.58;60.14;100341.53;4461610;32;20520;-91
2023/05/08 07:27:34;;;;;;;1.10;0.80;;;;;;;17.86;60.16;100338.34;4458550;32;20092;-90
2023/05/08 07:30:03;;;;;;;3.15;1.17;;;;;;;17.73;60.16;100339.91;4457773;32;20126;-89
2023/05/08 07:32:30;;;;;;;3.78;3.40;;;;;;;17.79;60.16;100340.44;4471085;32;20130;-90
2023/05/08 07:34:55;;;;;;;4.28;1.20;;;;;;;17.50;60.14;100346.31;4470665;32;20102;-91
2023/05/08 07:37:21;;;;;;;1.15;0.88;;;;;;;17.72;60.16;100338.19;4470530;32;20127;-90
2023/05/08 07:39:46;;;;;;;1.30;0.80;;;;;;;17.69;60.15;100341.84;4456867;32;20108;-90
2023/05/08 07:42:12;;;;;;;1.60;0.77;;;;;;;17.43;60.14;100345.78;4469849;32;20116;-91
2023/05/08 07:44:38;;;;;;;2.83;0.82;;;;;;;17.57;60.14;100350.34;4457472;32;20113;-90
2023/05/08 07:47:03;;;;;;;2.65;0.98;;;;;;;17.79;60.16;100348.34;4449922;32;27901;-91
2023/05/08 07:49:29;;;;;;;2.08;1.02;;;;;;;17.99;60.17;100339.41;4454104;32;20143;-90
2023/05/08 07:51:54;;;;;;;3.95;0.90;;;;;;;17.98;60.17;100342.97;4483635;32;20115;-90
2023/05/08 07:54:20;;;;;;;1.15;0.95;;;;;;;18.09;60.18;100340.59;4455618;32;20408;-90
2023/05/08 07:56:45;;;;;;;1.42;0.90;;;;;;;18.11;60.18;100343.16;4470427;32;20434;-91
2023/05/08 07:59:11;;;;;;;2.45;0.95;;;;;;;18.25;60.19;100345.91;4445633;32;20125;-90
2023/05/08 08:01:36;;;;;;;1.87;0.90;;;;;;;18.24;60.19;100348.63;4459229;32;20073;-91
2023/05/08 08:04:02;;;;;;;1.25;0.80;;;;;;;17.95;60.17;100353.66;4470139;32;20454;-90
2023/05/08 08:06:27;;;;;;;2.10;1.05;;;;;;;17.99;60.17;100339.41;4454988;32;20085;-90
2023/05/08 08:08:53;;;;;;;2.08;0.73;;;;;;;17.97;60.18;100343.88;4452310;32;20144;-91
2023/05/08 08:11:18;;;;;;;1.65;0.82;;;;;;;18.26;60.19;100342.34;4461323;32;20179;-91
2023/05/08 08:13:44;;;;;;;1.27;0.88;;;;;;;18.15;60.17;100333.28;4468596;32;22373;-89
2023/05/08 08:16:09;;;;;;;1.42;0.70;;;;;;;18.04;60.17;100337.38;4454796;32;20112;-89
2023/05/08 08:18:35;;;;;;;1.85;1.05;;;;;;;18.06;60.17;100334.66;4466058;32;20105;-92
2023/05/08 08:21:04;;;;;;;2.92;1.50;;;;;;;18.23;60.19;100346.94;4457471;32;20202;-90
2023/05/08 08:23:29;;;;;;;2.85;1.17;;;;;;;18.41;60.19;100341.47;4468768;32;20194;-89
2023/05/08 08:25:54;;;;;;;0.98;0.70;;;;;;;18.62;60.21;100334.22;4474420;32;20088;-92
2023/05/08 08:28:20;;;;;;;4.40;1.08;;;;;;;18.87;60.22;100338.09;4456690;32;20160;-91
2023/05/08 08:30:45;;;;;;;2.25;1.98;;;;;;;19.13;60.23;100328.69;4467501;32;20097;-91
2023/05/08 08:33:11;;;;;;;1.70;0.90;;;;;;;19.37;60.24;100331.69;4457815;32;24468;-90
2023/05/08 08:35:37;;;;;;;0.70;0.60;;;;;;;19.53;60.25;100337.75;4447623;32;20166;-90
2023/05/08 08:38:02;;;;;;;1.77;0.55;;;;;;;19.59;60.26;100335.63;4470162;32;20135;-90
2023/05/08 08:40:27;;;;;;;1.62;1.17;;;;;;;19.67;60.27;100323.78;4454714;32;20148;-92
2023/05/08 08:42:53;;;;;;;2.62;0.80;;;;;;;19.43;60.25;100333.97;4456170;32;20093;-90
2023/05/08 08:45:19;;;;;;;2.87;0.95;;;;;;;19.63;60.26;100331.00;4461671;32;20076;-90
2023/05/08 08:47:45;;;;;;;2.97;0.88;;;;;;;19.68;60.26;100330.75;4485921;31;20171;-95
2023/05/08 08:50:12;;;;;;;2.17;0.80;;;;;;;20.03;60.29;100333.88;4457791;32;20149;-90
2023/05/08 08:52:47;;;;;;;1.15;0.70;;;;;;;19.87;60.28;100313.69;4446594;32;20093;-91
2023/05/08 08:55:17;;;;;;;1.50;0.75;;;;;;;20.19;60.29;100326.69;4463736;32;20089;-91
2023/05/08 08:58:13;;;;;;;1.50;0.70;;;;;;;19.91;60.27;100328.41;4469571;32;20815;-94
2023/05/08 09:00:39;;;;;;;0.65;0.65;;;;;;;20.00;60.28;100334.91;4463799;32;20487;-90
2023/05/08 09:03:06;;;;;;;3.15;0.62;;;;;;;19.83;60.27;100332.44;4460287;32;20097;-93
2023/05/08 09:05:32;;;;;;;6.68;0.90;;;;;;;19.97;60.28;100326.31;4481257;32;20493;-91
2023/05/08 09:07:57;;;;;;;1.90;0.93;;;;;;;20.05;60.29;100327.53;4452524;32;20104;-91
2023/05/08 09:10:23;;;;;;;2.37;0.70;;;;;;;20.11;60.29;100336.88;4468052;32;20493;-91
2023/05/08 09:12:49;;;;;;;0.95;0.70;;;;;;;19.89;60.28;100335.59;4485212;32;20106;-92
2023/05/08 09:15:14;;;;;;;1.33;0.70;;;;;;;19.65;60.27;100331.78;4461402;32;20360;-90
2023/05/08 09:17:39;;;;;;;1.58;0.57;;;;;;;19.77;60.27;100333.66;4466383;32;20175;-91
2023/05/08 09:20:06;;;;;;;0.62;0.45;;;;;;;19.90;60.28;100332.00;4452388;32;20159;-92
2023/05/08 09:22:31;;;;;;;0.80;0.50;;;;;;;19.76;60.28;100339.91;4449303;32;20114;-91
2023/05/08 09:24:58;;;;;;;0.57;0.37;;;;;;;19.53;60.27;100338.63;4456114;32;20133;-93
2023/05/08 09:27:24;;;;;;;1.67;0.60;;;;;;;19.60;60.26;100334.69;4449780;32;20128;-90
2023/05/08 09:30:07;;;;;;;1.40;0.60;;;;;;;19.62;60.27;100331.94;4458642;32;20104;-91
2023/05/08 09:32:34;;;;;;;1.67;0.50;;;;;;;19.88;60.28;100317.19;4459439;32;20160;-93
2023/05/08 09:34:59;;;;;;;3.40;0.70;;;;;;;20.11;60.29;100323.66;4458933;32;20369;-94
2023/05/08 09:37:25;;;;;;;1.55;0.70;;;;;;;20.01;60.29;100322.53;4459077;32;20157;-92
2023/05/08 09:39:51;;;;;;;0.88;0.40;;;;;;;19.98;60.29;100320.94;4458687;32;20127;-92
2023/05/08 09:42:16;;;;;;;2.87;0.40;;;;;;;20.07;60.29;100327.44;4458693;32;20100;-92
2023/05/08 09:44:43;;;;;;;0.68;0.40;;;;;;;19.87;60.28;100326.91;4459376;32;20128;-95
2023/05/08 09:47:10;;;;;;;0.57;0.40;;;;;;;19.92;60.29;100327.47;4468944;32;20127;-91
2023/05/08 09:49:35;;;;;;;0.80;0.40;;;;;;;19.58;60.26;100325.16;4453445;32;20742;-90
2023/05/08 09:52:00;;;;;;;0.50;0.28;;;;;;;20.13;60.29;100313.88;4463355;32;20143;-92
2023/05/08 09:54:26;;;;;;;0.85;0.50;;;;;;;20.33;60.31;100318.72;4457939;32;20157;-91
2023/05/08 09:56:51;;;;;;;0.82;0.30;;;;;;;20.51;60.31;100312.31;4458636;32;20147;-91
2023/05/08 09:59:25;;;;;;;0.62;0.22;;;;;;;20.74;60.33;100302.88;4472328;32;20116;-91
2023/05/08 10:01:51;;;;;;;0.30;0.30;;;;;;;20.95;60.34;100305.91;4459976;32;20135;-91
2023/05/08 10:04:16;;;;;;;1.35;0.30;;;;;;;21.06;60.34;100298.13;4448792;32;20437;-93
2023/05/08 10:06:42;;;;;;;1.40;0.30;;;;;;;21.01;60.35;100305.50;4484595;32;20121;-94
2023/05/08 10:09:08;;;;;;;0.50;0.37;;;;;;;20.73;60.33;100301.19;4459819;32;20148;-91
2023/05/08 10:11:33;;;;;;;2.03;0.30;;;;;;;20.72;60.33;100298.63;4486657;32;20374;-93
2023/05/08 10:13:58;;;;;;;0.93;0.30;;;;;;;20.92;60.33;100307.94;4446149;32;20115;-92
2023/05/08 10:16:24;;;;;;;0.20;0.20;;;;;;;21.03;60.34;100289.53;4464226;32;20147;-92
2023/05/08 10:18:49;;;;;;;0.62;0.43;;;;;;;20.82;60.33;100290.03;4458209;32;20176;-93
2023/05/08 10:21:16;;;;;;;0.35;0.20;;;;;;;20.81;60.33;100298.88;4455996;32;20134;-92
2023/05/08 10:23:42;;;;;;;0.77;0.50;;;;;;;20.70;60.33;100289.97;4455910;32;20465;-93
2023/05/08 10:26:21;;;;;;;0.82;0.40;;;;;;;20.76;60.32;100287.75;4458811;32;20105;-93
2023/05/08 10:29:02;;;;;;;0.30;0.20;;;;;;;20.94;60.34;100287.50;4455980;32;20214;-91
2023/05/08 10:31:27;;;;;;;0.35;0.25;;;;;;;20.80;60.34;100293.69;4457692;32;20123;-93
2023/05/08 10:33:56;;;;;;;3.53;0.40;;;;;;;20.36;60.31;100297.41;4478916;32;20361;-93
2023/05/08 10:36:25;;;;;;;1.45;0.30;;;;;;;20.57;60.32;100286.41;4451609;32;20131;-92
2023/05/08 10:38:50;;;;;;;0.80;0.30;;;;;;;20.41;60.32;100270.69;4471722;32;20172;-92
2023/05/08 10:41:16;;;;;;;2.12;0.20;;;;;;;20.53;60.33;100280.47;4458377;32;20116;-92
2023/05/08 10:43:41;;;;;;;3.47;0.43;;;;;;;20.60;60.32;100271.22;4465340;32;20158;-93
2023/05/08 10:46:12;;;;;;;0.55;0.30;;;;;;;20.87;60.34;100283.56;4451632;32;20433;-92
2023/05/08 10:48:49;;;;;;;0.20;0.20;;;;;;;21.18;60.35;100277.06;4462885;32;20108;-91
2023/05/08 10:51:33;;;;;;;0.47;0.40;;;;;;;21.35;60.36;100277.66;4458619;32;20105;-93
2023/05/08 10:54:16;;;;;;;0.80;0.13;;;;;;;21.28;60.36;100273.72;4475107;32;20084;-93
2023/05/08 10:56:41;;;;;;;0.15;0.13;;;;;;;21.04;60.35;100273.53;4458383;32;20515;-92
2023/05/08 10:59:07;;;;;;;0.10;0.10;;;;;;;21.01;60.35;100262.31;4456861;32;20185;-91
2023/05/08 11:01:32;;;;;;;0.15;0.10;;;;;;;20.72;60.33;100274.84;4455068;32;31662;-91
2023/05/08 11:03:57;;;;;;;0.20;0.20;;;;;;;20.58;60.32;100267.78;4467296;32;20095;-91
2023/05/08 11:06:45;;;;;;;0.60;0.15;;;;;;;20.59;60.32;100266.03;4451001;32;34013;-91
2023/05/08 11:09:19;;;;;;;0.88;0.30;;;;;;;20.72;60.33;100269.53;4470086;32;20100;-90
2023/05/08 11:11:54;;;;;;;0.28;0.17;;;;;;;20.91;60.34;100264.72;4455983;32;20088;-92
2023/05/08 11:14:20;;;;;;;0.60;0.30;;;;;;;20.93;60.35;100257.53;4472033;32;20460;-89
2023/05/08 11:16:58;;;;;;;0.35;0.20;;;;;;;21.03;60.35;100255.97;4468302;32;20144;-91
2023/05/08 11:19:24;;;;;;;0.30;0.20;;;;;;;21.10;60.35;100244.03;4475810;32;20537;-92
2023/05/08 11:22:15;;;;;;;0.85;0.20;;;;;;;21.20;60.36;100254.81;4456704;32;20124;-90
2023/05/08 11:24:58;;;;;;;0.62;0.30;;;;;;;20.68;60.33;100250.37;4462103;32;20100;-92
2023/05/08 11:27:48;;;;;;;1.20;0.30;;;;;;;20.87;60.34;100259.75;4456338;32;20116;-92